Terminal Aerodrome Forecast
Issued by NWS

Home | Current Version | Previous Version | Text Only | Print | Product List | Glossary On
Versions: 1 2 3 4 5 6 7 8 9 10 11 12 13 14 15
323
FTUS46 KMTR 251120
TAFSNS
TAF
KSNS 251120Z 2512/2612 25004KT P6SM OVC018
     FM251900 26014G21KT P6SM SCT025
      TEMPO 2519/2521 BKN025
     FM260300 25012G18KT P6SM BKN018
     FM260600 24010KT P6SM OVC009=

USA.gov is the U.S. government's official web portal to all federal, state and local government web resources and services.